sensor_id;sensor_type;location;lat;lon;timestamp;P1;durP1;ratioP1;P2;durP2;ratioP2
42614;SDS011;28754;47.700;7.924;2022-08-25T00:01:29;3.95;;;2.53;;
42614;SDS011;28754;47.700;7.924;2022-08-25T00:04:19;2.60;;;2.00;;
42614;SDS011;28754;47.700;7.924;2022-08-25T00:07:07;2.42;;;1.92;;
42614;SDS011;28754;47.700;7.924;2022-08-25T00:09:54;2.78;;;1.92;;
42614;SDS011;28754;47.700;7.924;2022-08-25T00:12:40;5.85;;;2.08;;
42614;SDS011;28754;47.700;7.924;2022-08-25T00:15:27;2.35;;;1.65;;
42614;SDS011;28754;47.700;7.924;2022-08-25T00:18:17;4.05;;;2.13;;
42614;SDS011;28754;47.700;7.924;2022-08-25T00:21:04;2.30;;;1.73;;
42614;SDS011;28754;47.700;7.924;2022-08-25T00:23:51;2.28;;;1.80;;
42614;SDS011;28754;47.700;7.924;2022-08-25T00:26:39;2.75;;;1.73;;
42614;SDS011;28754;47.700;7.924;2022-08-25T00:29:28;2.50;;;1.77;;
42614;SDS011;28754;47.700;7.924;2022-08-25T00:32:17;2.70;;;1.73;;
42614;SDS011;28754;47.700;7.924;2022-08-25T00:35:03;4.30;;;1.98;;
42614;SDS011;28754;47.700;7.924;2022-08-25T00:37:51;4.03;;;1.90;;
42614;SDS011;28754;47.700;7.924;2022-08-25T00:40:39;2.88;;;2.13;;
42614;SDS011;28754;47.700;7.924;2022-08-25T00:43:26;4.72;;;1.90;;
42614;SDS011;28754;47.700;7.924;2022-08-25T00:46:19;2.60;;;1.88;;
42614;SDS011;28754;47.700;7.924;2022-08-25T00:49:23;3.25;;;1.63;;
42614;SDS011;28754;47.700;7.924;2022-08-25T00:52:15;4.15;;;2.25;;
42614;SDS011;28754;47.700;7.924;2022-08-25T00:55:15;2.72;;;2.08;;
42614;SDS011;28754;47.700;7.924;2022-08-25T00:58:13;2.83;;;1.67;;
42614;SDS011;28754;47.700;7.924;2022-08-25T01:01:06;2.83;;;1.77;;
42614;SDS011;28754;47.700;7.924;2022-08-25T01:03:54;2.97;;;2.15;;
42614;SDS011;28754;47.700;7.924;2022-08-25T01:06:42;3.33;;;2.35;;
42614;SDS011;28754;47.700;7.924;2022-08-25T01:09:30;3.78;;;1.73;;
42614;SDS011;28754;47.700;7.924;2022-08-25T01:12:17;3.63;;;2.10;;
42614;SDS011;28754;47.700;7.924;2022-08-25T01:15:06;3.65;;;2.20;;
42614;SDS011;28754;47.700;7.924;2022-08-25T01:17:59;3.10;;;1.75;;
42614;SDS011;28754;47.700;7.924;2022-08-25T01:20:53;3.90;;;1.92;;
42614;SDS011;28754;47.700;7.924;2022-08-25T01:23:43;3.33;;;2.20;;
42614;SDS011;28754;47.700;7.924;2022-08-25T01:26:32;2.67;;;1.67;;
42614;SDS011;28754;47.700;7.924;2022-08-25T01:29:20;2.80;;;2.20;;
42614;SDS011;28754;47.700;7.924;2022-08-25T01:32:09;5.75;;;1.73;;
42614;SDS011;28754;47.700;7.924;2022-08-25T01:34:58;4.45;;;1.90;;
42614;SDS011;28754;47.700;7.924;2022-08-25T01:37:45;2.97;;;1.95;;
42614;SDS011;28754;47.700;7.924;2022-08-25T01:40:32;2.97;;;2.03;;
42614;SDS011;28754;47.700;7.924;2022-08-25T01:43:25;3.33;;;2.20;;
42614;SDS011;28754;47.700;7.924;2022-08-25T01:46:21;3.53;;;2.38;;
42614;SDS011;28754;47.700;7.924;2022-08-25T01:49:08;2.63;;;2.03;;
42614;SDS011;28754;47.700;7.924;2022-08-25T01:51:56;4.20;;;2.72;;
42614;SDS011;28754;47.700;7.924;2022-08-25T01:54:52;5.85;;;2.03;;
42614;SDS011;28754;47.700;7.924;2022-08-25T01:57:39;2.88;;;2.08;;
42614;SDS011;28754;47.700;7.924;2022-08-25T02:00:25;6.75;;;2.53;;
42614;SDS011;28754;47.700;7.924;2022-08-25T02:03:15;3.00;;;1.90;;
42614;SDS011;28754;47.700;7.924;2022-08-25T02:06:04;3.85;;;2.20;;
42614;SDS011;28754;47.700;7.924;2022-08-25T02:08:53;2.95;;;1.90;;
42614;SDS011;28754;47.700;7.924;2022-08-25T02:11:45;4.85;;;2.35;;
42614;SDS011;28754;47.700;7.924;2022-08-25T02:14:32;2.42;;;1.85;;
42614;SDS011;28754;47.700;7.924;2022-08-25T02:17:20;2.25;;;1.90;;
42614;SDS011;28754;47.700;7.924;2022-08-25T02:20:07;3.80;;;2.38;;
42614;SDS011;28754;47.700;7.924;2022-08-25T02:22:54;2.58;;;2.15;;
42614;SDS011;28754;47.700;7.924;2022-08-25T02:25:41;4.07;;;2.30;;
42614;SDS011;28754;47.700;7.924;2022-08-25T02:28:29;3.85;;;2.20;;
42614;SDS011;28754;47.700;7.924;2022-08-25T02:31:17;3.90;;;2.45;;
42614;SDS011;28754;47.700;7.924;2022-08-25T02:34:07;4.38;;;2.13;;
42614;SDS011;28754;47.700;7.924;2022-08-25T02:36:55;7.13;;;2.58;;
42614;SDS011;28754;47.700;7.924;2022-08-25T02:39:41;5.30;;;2.60;;
42614;SDS011;28754;47.700;7.924;2022-08-25T02:42:28;4.90;;;2.70;;
42614;SDS011;28754;47.700;7.924;2022-08-25T02:45:15;3.00;;;2.10;;
42614;SDS011;28754;47.700;7.924;2022-08-25T02:48:03;2.75;;;1.90;;
42614;SDS011;28754;47.700;7.924;2022-08-25T02:50:51;5.32;;;1.98;;
42614;SDS011;28754;47.700;7.924;2022-08-25T02:53:38;2.65;;;2.28;;
42614;SDS011;28754;47.700;7.924;2022-08-25T02:56:27;6.05;;;2.80;;
42614;SDS011;28754;47.700;7.924;2022-08-25T02:59:15;2.85;;;2.20;;
42614;SDS011;28754;47.700;7.924;2022-08-25T03:02:03;2.95;;;2.17;;
42614;SDS011;28754;47.700;7.924;2022-08-25T03:04:51;2.88;;;2.30;;
42614;SDS011;28754;47.700;7.924;2022-08-25T03:07:39;5.68;;;2.80;;
42614;SDS011;28754;47.700;7.924;2022-08-25T03:10:27;4.45;;;2.60;;
42614;SDS011;28754;47.700;7.924;2022-08-25T03:13:13;4.65;;;2.83;;
42614;SDS011;28754;47.700;7.924;2022-08-25T03:16:02;2.85;;;2.22;;
42614;SDS011;28754;47.700;7.924;2022-08-25T03:18:50;2.58;;;2.00;;
42614;SDS011;28754;47.700;7.924;2022-08-25T03:21:37;3.08;;;2.45;;
42614;SDS011;28754;47.700;7.924;2022-08-25T03:24:24;3.55;;;2.05;;
42614;SDS011;28754;47.700;7.924;2022-08-25T03:27:11;3.67;;;2.35;;
42614;SDS011;28754;47.700;7.924;2022-08-25T03:29:58;2.70;;;2.05;;
42614;SDS011;28754;47.700;7.924;2022-08-25T03:32:45;9.10;;;3.10;;
42614;SDS011;28754;47.700;7.924;2022-08-25T03:35:32;3.65;;;2.15;;
42614;SDS011;28754;47.700;7.924;2022-08-25T03:38:18;4.95;;;2.30;;
42614;SDS011;28754;47.700;7.924;2022-08-25T03:41:12;3.88;;;2.92;;
42614;SDS011;28754;47.700;7.924;2022-08-25T03:44:13;2.97;;;2.28;;
42614;SDS011;28754;47.700;7.924;2022-08-25T03:47:02;3.83;;;2.30;;
42614;SDS011;28754;47.700;7.924;2022-08-25T03:49:49;5.47;;;2.63;;
42614;SDS011;28754;47.700;7.924;2022-08-25T03:52:36;3.75;;;2.20;;
42614;SDS011;28754;47.700;7.924;2022-08-25T03:55:24;24.88;;;3.40;;
42614;SDS011;28754;47.700;7.924;2022-08-25T03:58:11;4.85;;;2.45;;
42614;SDS011;28754;47.700;7.924;2022-08-25T04:00:59;5.25;;;2.55;;
42614;SDS011;28754;47.700;7.924;2022-08-25T04:03:50;6.35;;;2.53;;
42614;SDS011;28754;47.700;7.924;2022-08-25T04:06:38;3.78;;;2.22;;
42614;SDS011;28754;47.700;7.924;2022-08-25T04:09:26;3.58;;;2.15;;
42614;SDS011;28754;47.700;7.924;2022-08-25T04:12:13;2.50;;;2.28;;
42614;SDS011;28754;47.700;7.924;2022-08-25T04:15:00;3.10;;;2.45;;
42614;SDS011;28754;47.700;7.924;2022-08-25T04:17:47;3.50;;;2.28;;
42614;SDS011;28754;47.700;7.924;2022-08-25T04:20:34;3.42;;;1.80;;
42614;SDS011;28754;47.700;7.924;2022-08-25T04:23:20;3.92;;;2.83;;
42614;SDS011;28754;47.700;7.924;2022-08-25T04:26:08;4.80;;;2.20;;
42614;SDS011;28754;47.700;7.924;2022-08-25T04:31:51;3.25;;;2.17;;
42614;SDS011;28754;47.700;7.924;2022-08-25T04:34:39;3.03;;;1.90;;
42614;SDS011;28754;47.700;7.924;2022-08-25T04:37:28;2.85;;;2.20;;
42614;SDS011;28754;47.700;7.924;2022-08-25T04:40:14;3.90;;;2.00;;
42614;SDS011;28754;47.700;7.924;2022-08-25T04:43:01;4.88;;;2.30;;
42614;SDS011;28754;47.700;7.924;2022-08-25T04:45:48;3.75;;;2.40;;
42614;SDS011;28754;47.700;7.924;2022-08-25T04:48:34;3.50;;;2.40;;
42614;SDS011;28754;47.700;7.924;2022-08-25T04:51:23;3.10;;;2.50;;
42614;SDS011;28754;47.700;7.924;2022-08-25T04:54:17;3.58;;;2.33;;
42614;SDS011;28754;47.700;7.924;2022-08-25T04:57:07;3.88;;;2.15;;
42614;SDS011;28754;47.700;7.924;2022-08-25T04:59:54;3.05;;;2.25;;
42614;SDS011;28754;47.700;7.924;2022-08-25T05:02:41;5.22;;;2.60;;
42614;SDS011;28754;47.700;7.924;2022-08-25T05:05:28;2.50;;;1.98;;
42614;SDS011;28754;47.700;7.924;2022-08-25T05:08:15;3.20;;;2.28;;
42614;SDS011;28754;47.700;7.924;2022-08-25T05:11:05;3.45;;;2.40;;
42614;SDS011;28754;47.700;7.924;2022-08-25T05:13:55;5.25;;;2.58;;
42614;SDS011;28754;47.700;7.924;2022-08-25T05:16:43;3.92;;;2.47;;
42614;SDS011;28754;47.700;7.924;2022-08-25T05:19:30;5.53;;;1.98;;
42614;SDS011;28754;47.700;7.924;2022-08-25T05:22:16;2.28;;;1.85;;
42614;SDS011;28754;47.700;7.924;2022-08-25T05:25:03;2.67;;;2.22;;
42614;SDS011;28754;47.700;7.924;2022-08-25T05:27:50;4.18;;;2.70;;
42614;SDS011;28754;47.700;7.924;2022-08-25T05:30:37;3.70;;;2.53;;
42614;SDS011;28754;47.700;7.924;2022-08-25T05:33:26;3.30;;;2.22;;
42614;SDS011;28754;47.700;7.924;2022-08-25T05:36:13;2.50;;;1.60;;
42614;SDS011;28754;47.700;7.924;2022-08-25T05:39:02;2.88;;;2.20;;
42614;SDS011;28754;47.700;7.924;2022-08-25T05:41:49;4.57;;;2.25;;
42614;SDS011;28754;47.700;7.924;2022-08-25T05:44:36;3.67;;;2.92;;
42614;SDS011;28754;47.700;7.924;2022-08-25T05:47:23;3.47;;;2.35;;
42614;SDS011;28754;47.700;7.924;2022-08-25T05:50:10;2.38;;;1.80;;
42614;SDS011;28754;47.700;7.924;2022-08-25T05:52:56;3.15;;;2.08;;
42614;SDS011;28754;47.700;7.924;2022-08-25T05:55:44;3.30;;;1.92;;
42614;SDS011;28754;47.700;7.924;2022-08-25T05:58:30;4.88;;;2.42;;
42614;SDS011;28754;47.700;7.924;2022-08-25T06:01:18;6.53;;;3.38;;
42614;SDS011;28754;47.700;7.924;2022-08-25T06:04:32;6.32;;;2.33;;
42614;SDS011;28754;47.700;7.924;2022-08-25T06:07:19;2.63;;;1.98;;
42614;SDS011;28754;47.700;7.924;2022-08-25T06:10:07;2.78;;;2.10;;
42614;SDS011;28754;47.700;7.924;2022-08-25T06:12:58;2.63;;;1.98;;
42614;SDS011;28754;47.700;7.924;2022-08-25T06:15:45;6.38;;;2.03;;
42614;SDS011;28754;47.700;7.924;2022-08-25T06:18:45;3.15;;;2.13;;
42614;SDS011;28754;47.700;7.924;2022-08-25T06:24:49;2.35;;;2.08;;
42614;SDS011;28754;47.700;7.924;2022-08-25T06:27:38;2.15;;;1.75;;
42614;SDS011;28754;47.700;7.924;2022-08-25T06:30:25;4.70;;;2.30;;
42614;SDS011;28754;47.700;7.924;2022-08-25T06:33:12;3.63;;;1.52;;
42614;SDS011;28754;47.700;7.924;2022-08-25T06:36:00;3.35;;;2.28;;
42614;SDS011;28754;47.700;7.924;2022-08-25T06:38:47;5.82;;;1.95;;
42614;SDS011;28754;47.700;7.924;2022-08-25T06:41:39;3.08;;;1.65;;
42614;SDS011;28754;47.700;7.924;2022-08-25T06:44:27;2.25;;;1.60;;
42614;SDS011;28754;47.700;7.924;2022-08-25T06:47:14;4.85;;;2.63;;
42614;SDS011;28754;47.700;7.924;2022-08-25T06:50:02;3.38;;;1.98;;
42614;SDS011;28754;47.700;7.924;2022-08-25T06:52:50;2.97;;;2.15;;
42614;SDS011;28754;47.700;7.924;2022-08-25T06:55:37;3.25;;;1.90;;
42614;SDS011;28754;47.700;7.924;2022-08-25T06:58:24;2.78;;;1.90;;
42614;SDS011;28754;47.700;7.924;2022-08-25T07:01:12;4.75;;;2.40;;
42614;SDS011;28754;47.700;7.924;2022-08-25T07:04:08;2.40;;;1.80;;
42614;SDS011;28754;47.700;7.924;2022-08-25T07:06:55;2.58;;;1.60;;
42614;SDS011;28754;47.700;7.924;2022-08-25T07:09:46;2.47;;;1.77;;
42614;SDS011;28754;47.700;7.924;2022-08-25T07:12:33;2.90;;;2.00;;
42614;SDS011;28754;47.700;7.924;2022-08-25T07:15:20;4.00;;;1.98;;
42614;SDS011;28754;47.700;7.924;2022-08-25T07:18:07;2.83;;;2.08;;
42614;SDS011;28754;47.700;7.924;2022-08-25T07:21:00;6.45;;;1.95;;
42614;SDS011;28754;47.700;7.924;2022-08-25T07:23:51;2.17;;;1.90;;
42614;SDS011;28754;47.700;7.924;2022-08-25T07:34:21;2.30;;;1.55;;
42614;SDS011;28754;47.700;7.924;2022-08-25T07:37:26;2.13;;;1.70;;
42614;SDS011;28754;47.700;7.924;2022-08-25T07:40:17;3.25;;;2.33;;
42614;SDS011;28754;47.700;7.924;2022-08-25T07:43:07;2.05;;;1.77;;
42614;SDS011;28754;47.700;7.924;2022-08-25T07:45:55;2.30;;;1.70;;
42614;SDS011;28754;47.700;7.924;2022-08-25T07:48:41;4.53;;;1.95;;
42614;SDS011;28754;47.700;7.924;2022-08-25T07:51:28;3.40;;;2.00;;
42614;SDS011;28754;47.700;7.924;2022-08-25T07:54:21;4.63;;;1.95;;
42614;SDS011;28754;47.700;7.924;2022-08-25T07:57:09;3.17;;;2.08;;
42614;SDS011;28754;47.700;7.924;2022-08-25T07:59:55;4.18;;;2.22;;
42614;SDS011;28754;47.700;7.924;2022-08-25T08:02:43;2.95;;;2.20;;
42614;SDS011;28754;47.700;7.924;2022-08-25T08:05:30;2.03;;;1.75;;
42614;SDS011;28754;47.700;7.924;2022-08-25T08:08:18;4.07;;;1.95;;
42614;SDS011;28754;47.700;7.924;2022-08-25T08:11:04;3.95;;;1.85;;
42614;SDS011;28754;47.700;7.924;2022-08-25T08:13:52;2.78;;;2.13;;
42614;SDS011;28754;47.700;7.924;2022-08-25T08:16:40;2.38;;;1.50;;
42614;SDS011;28754;47.700;7.924;2022-08-25T08:19:27;3.67;;;2.20;;
42614;SDS011;28754;47.700;7.924;2022-08-25T08:22:13;2.60;;;1.70;;
42614;SDS011;28754;47.700;7.924;2022-08-25T08:25:00;4.22;;;2.28;;
42614;SDS011;28754;47.700;7.924;2022-08-25T08:27:47;2.65;;;2.03;;
42614;SDS011;28754;47.700;7.924;2022-08-25T08:30:35;4.97;;;2.65;;
42614;SDS011;28754;47.700;7.924;2022-08-25T08:33:22;1.50;;;1.35;;
42614;SDS011;28754;47.700;7.924;2022-08-25T08:36:10;2.60;;;2.00;;
42614;SDS011;28754;47.700;7.924;2022-08-25T08:38:57;1.98;;;1.75;;
42614;SDS011;28754;47.700;7.924;2022-08-25T08:41:56;2.92;;;2.10;;
42614;SDS011;28754;47.700;7.924;2022-08-25T08:54:05;1.85;;;1.65;;
42614;SDS011;28754;47.700;7.924;2022-08-25T08:57:10;2.05;;;1.58;;
42614;SDS011;28754;47.700;7.924;2022-08-25T09:00:04;1.75;;;1.42;;
42614;SDS011;28754;47.700;7.924;2022-08-25T09:02:58;2.53;;;1.73;;
42614;SDS011;28754;47.700;7.924;2022-08-25T09:05:58;2.60;;;1.80;;
42614;SDS011;28754;47.700;7.924;2022-08-25T09:08:50;4.22;;;1.77;;
42614;SDS011;28754;47.700;7.924;2022-08-25T09:21:07;1.90;;;1.52;;
42614;SDS011;28754;47.700;7.924;2022-08-25T09:27:13;3.75;;;2.47;;
42614;SDS011;28754;47.700;7.924;2022-08-25T09:30:18;2.17;;;1.80;;
42614;SDS011;28754;47.700;7.924;2022-08-25T09:33:17;6.35;;;1.73;;
42614;SDS011;28754;47.700;7.924;2022-08-25T09:36:11;1.67;;;1.58;;
42614;SDS011;28754;47.700;7.924;2022-08-25T09:38:59;4.63;;;2.28;;
42614;SDS011;28754;47.700;7.924;2022-08-25T09:41:47;4.15;;;2.67;;
42614;SDS011;28754;47.700;7.924;2022-08-25T09:44:40;3.33;;;2.58;;
42614;SDS011;28754;47.700;7.924;2022-08-25T09:47:29;3.08;;;2.10;;
42614;SDS011;28754;47.700;7.924;2022-08-25T09:50:18;4.95;;;2.65;;
42614;SDS011;28754;47.700;7.924;2022-08-25T09:53:11;7.38;;;2.10;;
42614;SDS011;28754;47.700;7.924;2022-08-25T09:56:02;5.57;;;2.22;;
42614;SDS011;28754;47.700;7.924;2022-08-25T09:58:52;3.38;;;2.55;;
42614;SDS011;28754;47.700;7.924;2022-08-25T10:01:52;3.00;;;2.67;;
42614;SDS011;28754;47.700;7.924;2022-08-25T10:04:42;4.80;;;2.50;;
42614;SDS011;28754;47.700;7.924;2022-08-25T10:07:33;3.72;;;2.15;;
42614;SDS011;28754;47.700;7.924;2022-08-25T10:10:34;4.07;;;2.70;;
42614;SDS011;28754;47.700;7.924;2022-08-25T10:13:48;3.58;;;2.55;;
42614;SDS011;28754;47.700;7.924;2022-08-25T10:16:47;4.30;;;2.00;;
42614;SDS011;28754;47.700;7.924;2022-08-25T10:19:34;6.47;;;2.47;;
42614;SDS011;28754;47.700;7.924;2022-08-25T10:22:22;4.50;;;2.50;;
42614;SDS011;28754;47.700;7.924;2022-08-25T10:25:27;5.28;;;2.80;;
42614;SDS011;28754;47.700;7.924;2022-08-25T10:28:51;3.28;;;2.25;;
42614;SDS011;28754;47.700;7.924;2022-08-25T10:31:55;2.75;;;2.15;;
42614;SDS011;28754;47.700;7.924;2022-08-25T10:34:57;2.97;;;1.92;;
42614;SDS011;28754;47.700;7.924;2022-08-25T10:38:07;2.92;;;2.35;;
42614;SDS011;28754;47.700;7.924;2022-08-25T10:54:48;2.58;;;1.83;;
42614;SDS011;28754;47.700;7.924;2022-08-25T11:00:58;6.88;;;1.77;;
42614;SDS011;28754;47.700;7.924;2022-08-25T11:04:27;1.52;;;1.33;;
42614;SDS011;28754;47.700;7.924;2022-08-25T11:07:30;2.22;;;1.75;;
42614;SDS011;28754;47.700;7.924;2022-08-25T11:10:25;2.78;;;1.77;;
42614;SDS011;28754;47.700;7.924;2022-08-25T11:13:25;2.28;;;1.70;;
42614;SDS011;28754;47.700;7.924;2022-08-25T11:19:37;2.25;;;2.05;;
42614;SDS011;28754;47.700;7.924;2022-08-25T11:22:31;3.40;;;1.83;;
42614;SDS011;28754;47.700;7.924;2022-08-25T11:25:29;2.08;;;1.40;;
42614;SDS011;28754;47.700;7.924;2022-08-25T11:31:12;2.08;;;1.65;;
42614;SDS011;28754;47.700;7.924;2022-08-25T11:34:02;2.63;;;1.90;;
42614;SDS011;28754;47.700;7.924;2022-08-25T11:36:57;8.25;;;2.33;;
42614;SDS011;28754;47.700;7.924;2022-08-25T11:49:54;1.75;;;1.60;;
42614;SDS011;28754;47.700;7.924;2022-08-25T11:52:50;1.88;;;1.38;;
42614;SDS011;28754;47.700;7.924;2022-08-25T11:56:10;1.63;;;1.48;;
42614;SDS011;28754;47.700;7.924;2022-08-25T12:02:43;2.30;;;1.63;;
42614;SDS011;28754;47.700;7.924;2022-08-25T12:11:52;4.35;;;1.65;;
42614;SDS011;28754;47.700;7.924;2022-08-25T12:14:41;3.00;;;2.30;;
42614;SDS011;28754;47.700;7.924;2022-08-25T12:17:36;2.30;;;1.42;;
42614;SDS011;28754;47.700;7.924;2022-08-25T12:21:07;1.50;;;1.35;;
42614;SDS011;28754;47.700;7.924;2022-08-25T12:23:43;1.45;;;1.20;;
42614;SDS011;28754;47.700;7.924;2022-08-25T12:26:54;3.05;;;1.38;;
42614;SDS011;28754;47.700;7.924;2022-08-25T12:30:01;2.60;;;1.67;;
42614;SDS011;28754;47.700;7.924;2022-08-25T12:33:07;2.75;;;1.80;;
42614;SDS011;28754;47.700;7.924;2022-08-25T12:36:28;2.50;;;2.13;;
42614;SDS011;28754;47.700;7.924;2022-08-25T12:39:22;2.20;;;1.65;;
42614;SDS011;28754;47.700;7.924;2022-08-25T12:46:38;1.92;;;1.52;;
42614;SDS011;28754;47.700;7.924;2022-08-25T12:49:31;1.52;;;1.35;;
42614;SDS011;28754;47.700;7.924;2022-08-25T12:52:21;1.17;;;1.00;;
42614;SDS011;28754;47.700;7.924;2022-08-25T12:55:11;1.67;;;1.30;;
42614;SDS011;28754;47.700;7.924;2022-08-25T12:57:58;2.05;;;1.27;;
42614;SDS011;28754;47.700;7.924;2022-08-25T13:10:19;2.85;;;1.15;;
42614;SDS011;28754;47.700;7.924;2022-08-25T13:16:54;1.33;;;1.10;;
42614;SDS011;28754;47.700;7.924;2022-08-25T13:19:43;1.95;;;1.70;;
42614;SDS011;28754;47.700;7.924;2022-08-25T13:22:30;1.90;;;1.38;;
42614;SDS011;28754;47.700;7.924;2022-08-25T13:25:18;4.03;;;1.30;;
42614;SDS011;28754;47.700;7.924;2022-08-25T13:28:10;2.03;;;1.27;;
42614;SDS011;28754;47.700;7.924;2022-08-25T13:31:18;3.53;;;1.50;;
42614;SDS011;28754;47.700;7.924;2022-08-25T13:34:14;3.05;;;2.08;;
42614;SDS011;28754;47.700;7.924;2022-08-25T13:37:09;5.80;;;1.60;;
42614;SDS011;28754;47.700;7.924;2022-08-25T13:43:12;2.30;;;1.50;;
42614;SDS011;28754;47.700;7.924;2022-08-25T13:45:59;1.73;;;1.52;;
42614;SDS011;28754;47.700;7.924;2022-08-25T13:48:48;5.72;;;1.58;;
42614;SDS011;28754;47.700;7.924;2022-08-25T13:51:35;1.95;;;1.10;;
42614;SDS011;28754;47.700;7.924;2022-08-25T13:54:48;2.13;;;1.60;;
42614;SDS011;28754;47.700;7.924;2022-08-25T13:57:34;1.83;;;1.40;;
42614;SDS011;28754;47.700;7.924;2022-08-25T14:00:29;1.63;;;1.48;;
42614;SDS011;28754;47.700;7.924;2022-08-25T14:03:34;3.45;;;1.63;;
42614;SDS011;28754;47.700;7.924;2022-08-25T14:06:32;1.55;;;0.95;;
42614;SDS011;28754;47.700;7.924;2022-08-25T14:09:18;1.98;;;1.25;;
42614;SDS011;28754;47.700;7.924;2022-08-25T14:12:05;6.13;;;2.33;;
42614;SDS011;28754;47.700;7.924;2022-08-25T14:15:06;2.30;;;1.30;;
42614;SDS011;28754;47.700;7.924;2022-08-25T14:18:01;2.13;;;1.42;;
42614;SDS011;28754;47.700;7.924;2022-08-25T14:20:58;1.35;;;0.98;;
42614;SDS011;28754;47.700;7.924;2022-08-25T14:23:53;4.60;;;1.25;;
42614;SDS011;28754;47.700;7.924;2022-08-25T14:26:41;1.95;;;1.00;;
42614;SDS011;28754;47.700;7.924;2022-08-25T14:29:30;3.45;;;1.20;;
42614;SDS011;28754;47.700;7.924;2022-08-25T14:32:17;3.00;;;1.10;;
42614;SDS011;28754;47.700;7.924;2022-08-25T14:35:03;1.17;;;1.00;;
42614;SDS011;28754;47.700;7.924;2022-08-25T14:37:51;1.92;;;1.20;;
42614;SDS011;28754;47.700;7.924;2022-08-25T14:40:38;1.27;;;1.10;;
42614;SDS011;28754;47.700;7.924;2022-08-25T14:43:28;3.55;;;1.60;;
42614;SDS011;28754;47.700;7.924;2022-08-25T14:46:17;2.85;;;1.00;;
42614;SDS011;28754;47.700;7.924;2022-08-25T14:49:09;1.27;;;1.07;;
42614;SDS011;28754;47.700;7.924;2022-08-25T14:52:06;2.63;;;1.20;;
42614;SDS011;28754;47.700;7.924;2022-08-25T14:55:06;1.77;;;1.23;;
42614;SDS011;28754;47.700;7.924;2022-08-25T14:57:54;1.50;;;1.17;;
42614;SDS011;28754;47.700;7.924;2022-08-25T15:00:42;3.60;;;1.20;;
42614;SDS011;28754;47.700;7.924;2022-08-25T15:04:18;1.90;;;1.20;;
42614;SDS011;28754;47.700;7.924;2022-08-25T15:07:11;1.87;;;1.00;;
42614;SDS011;28754;47.700;7.924;2022-08-25T15:10:16;1.52;;;1.10;;
42614;SDS011;28754;47.700;7.924;2022-08-25T15:13:04;3.88;;;1.27;;
42614;SDS011;28754;47.700;7.924;2022-08-25T15:16:06;1.90;;;1.73;;
42614;SDS011;28754;47.700;7.924;2022-08-25T15:19:40;1.45;;;1.23;;
42614;SDS011;28754;47.700;7.924;2022-08-25T15:28:03;0.70;;;0.68;;
42614;SDS011;28754;47.700;7.924;2022-08-25T15:30:56;1.17;;;0.98;;
42614;SDS011;28754;47.700;7.924;2022-08-25T15:34:47;1.83;;;1.15;;
42614;SDS011;28754;47.700;7.924;2022-08-25T15:37:34;1.92;;;1.40;;
42614;SDS011;28754;47.700;7.924;2022-08-25T15:40:21;4.68;;;1.10;;
42614;SDS011;28754;47.700;7.924;2022-08-25T15:43:08;2.13;;;1.63;;
42614;SDS011;28754;47.700;7.924;2022-08-25T15:46:00;2.40;;;1.80;;
42614;SDS011;28754;47.700;7.924;2022-08-25T15:48:49;2.17;;;1.35;;
42614;SDS011;28754;47.700;7.924;2022-08-25T15:51:36;5.05;;;1.00;;
42614;SDS011;28754;47.700;7.924;2022-08-25T15:54:23;1.88;;;1.00;;
42614;SDS011;28754;47.700;7.924;2022-08-25T15:57:11;1.33;;;1.02;;
42614;SDS011;28754;47.700;7.924;2022-08-25T15:59:58;2.00;;;0.85;;
42614;SDS011;28754;47.700;7.924;2022-08-25T16:02:44;1.60;;;1.40;;
42614;SDS011;28754;47.700;7.924;2022-08-25T16:05:31;1.63;;;1.23;;
42614;SDS011;28754;47.700;7.924;2022-08-25T16:08:20;1.65;;;0.90;;
42614;SDS011;28754;47.700;7.924;2022-08-25T16:11:15;1.52;;;1.05;;
42614;SDS011;28754;47.700;7.924;2022-08-25T16:14:11;2.00;;;1.20;;
42614;SDS011;28754;47.700;7.924;2022-08-25T16:16:59;3.78;;;1.10;;
42614;SDS011;28754;47.700;7.924;2022-08-25T16:19:46;1.88;;;1.17;;
42614;SDS011;28754;47.700;7.924;2022-08-25T16:22:33;2.65;;;1.73;;
42614;SDS011;28754;47.700;7.924;2022-08-25T16:25:20;3.22;;;1.23;;
42614;SDS011;28754;47.700;7.924;2022-08-25T16:28:08;1.67;;;1.13;;
42614;SDS011;28754;47.700;7.924;2022-08-25T16:30:56;1.27;;;1.00;;
42614;SDS011;28754;47.700;7.924;2022-08-25T16:33:43;1.30;;;0.93;;
42614;SDS011;28754;47.700;7.924;2022-08-25T16:36:30;0.98;;;0.80;;
42614;SDS011;28754;47.700;7.924;2022-08-25T16:39:17;1.65;;;1.00;;
42614;SDS011;28754;47.700;7.924;2022-08-25T16:42:05;1.52;;;1.15;;
42614;SDS011;28754;47.700;7.924;2022-08-25T16:44:52;2.88;;;0.98;;
42614;SDS011;28754;47.700;7.924;2022-08-25T16:47:39;1.38;;;1.20;;
42614;SDS011;28754;47.700;7.924;2022-08-25T16:50:26;2.90;;;1.00;;
42614;SDS011;28754;47.700;7.924;2022-08-25T16:53:15;1.48;;;1.25;;
42614;SDS011;28754;47.700;7.924;2022-08-25T16:56:20;1.35;;;1.08;;
42614;SDS011;28754;47.700;7.924;2022-08-25T16:59:10;1.30;;;1.02;;
42614;SDS011;28754;47.700;7.924;2022-08-25T17:01:58;1.75;;;1.10;;
42614;SDS011;28754;47.700;7.924;2022-08-25T17:04:45;3.17;;;1.42;;
42614;SDS011;28754;47.700;7.924;2022-08-25T17:07:32;1.30;;;1.15;;
42614;SDS011;28754;47.700;7.924;2022-08-25T17:10:19;1.63;;;1.30;;
42614;SDS011;28754;47.700;7.924;2022-08-25T17:13:06;2.92;;;1.30;;
42614;SDS011;28754;47.700;7.924;2022-08-25T17:15:52;1.38;;;1.17;;
42614;SDS011;28754;47.700;7.924;2022-08-25T17:18:39;2.00;;;1.33;;
42614;SDS011;28754;47.700;7.924;2022-08-25T17:21:26;2.50;;;1.45;;
42614;SDS011;28754;47.700;7.924;2022-08-25T17:24:18;3.47;;;1.20;;
42614;SDS011;28754;47.700;7.924;2022-08-25T17:27:06;1.63;;;1.13;;
42614;SDS011;28754;47.700;7.924;2022-08-25T17:29:53;4.00;;;1.27;;
42614;SDS011;28754;47.700;7.924;2022-08-25T17:32:40;1.85;;;1.20;;
42614;SDS011;28754;47.700;7.924;2022-08-25T17:35:27;1.58;;;1.13;;
42614;SDS011;28754;47.700;7.924;2022-08-25T17:38:15;1.75;;;1.33;;
42614;SDS011;28754;47.700;7.924;2022-08-25T17:41:10;1.58;;;1.13;;
42614;SDS011;28754;47.700;7.924;2022-08-25T17:43:59;4.45;;;1.95;;
42614;SDS011;28754;47.700;7.924;2022-08-25T17:46:46;2.05;;;1.27;;
42614;SDS011;28754;47.700;7.924;2022-08-25T17:49:33;3.03;;;1.10;;
42614;SDS011;28754;47.700;7.924;2022-08-25T17:52:20;1.83;;;1.23;;
42614;SDS011;28754;47.700;7.924;2022-08-25T17:55:06;1.63;;;1.25;;
42614;SDS011;28754;47.700;7.924;2022-08-25T17:57:54;0.98;;;0.85;;
42614;SDS011;28754;47.700;7.924;2022-08-25T18:00:41;3.63;;;1.25;;
42614;SDS011;28754;47.700;7.924;2022-08-25T18:03:30;2.42;;;1.30;;
42614;SDS011;28754;47.700;7.924;2022-08-25T18:06:17;3.10;;;1.20;;
42614;SDS011;28754;47.700;7.924;2022-08-25T18:09:05;1.67;;;1.35;;
42614;SDS011;28754;47.700;7.924;2022-08-25T18:11:54;1.80;;;1.40;;
42614;SDS011;28754;47.700;7.924;2022-08-25T18:14:41;1.92;;;1.50;;
42614;SDS011;28754;47.700;7.924;2022-08-25T18:17:27;1.58;;;1.00;;
42614;SDS011;28754;47.700;7.924;2022-08-25T18:20:14;1.90;;;1.30;;
42614;SDS011;28754;47.700;7.924;2022-08-25T18:23:01;3.13;;;2.10;;
42614;SDS011;28754;47.700;7.924;2022-08-25T18:25:48;5.28;;;1.45;;
42614;SDS011;28754;47.700;7.924;2022-08-25T18:28:35;3.65;;;1.10;;
42614;SDS011;28754;47.700;7.924;2022-08-25T18:31:21;3.83;;;1.60;;
42614;SDS011;28754;47.700;7.924;2022-08-25T18:34:08;4.82;;;2.63;;
42614;SDS011;28754;47.700;7.924;2022-08-25T18:36:56;4.18;;;1.85;;
42614;SDS011;28754;47.700;7.924;2022-08-25T18:40:03;2.42;;;1.92;;
42614;SDS011;28754;47.700;7.924;2022-08-25T18:43:09;3.75;;;1.50;;
42614;SDS011;28754;47.700;7.924;2022-08-25T18:45:59;4.18;;;1.38;;
42614;SDS011;28754;47.700;7.924;2022-08-25T18:48:49;4.72;;;1.45;;
42614;SDS011;28754;47.700;7.924;2022-08-25T18:51:36;1.80;;;1.50;;
42614;SDS011;28754;47.700;7.924;2022-08-25T18:54:23;4.32;;;1.63;;
42614;SDS011;28754;47.700;7.924;2022-08-25T18:57:10;2.50;;;1.58;;